Time;durP1;ratioP1;P1;durP2;ratioP2;P2;SDS_P1;SDS_P2;PMS_P1;PMS_P2;Temp;Humidity;BMP_temperature;BMP_pressure;BME280_temperature;BME280_humidity;BME280_pressure;Samples;Min_cycle;Max_cycle;Signal;HPM_P1;HPM_P2
2023/03/17 00:00:38;;;;;;;6.30;2.75;;;9.10;99.90;;;;;;4882817;29;20040;-72
2023/03/17 00:03:04;;;;;;;6.20;2.70;;;9.10;99.90;;;;;;4882398;29;20040;-71
2023/03/17 00:05:32;;;;;;;7.65;2.70;;;9.00;99.90;;;;;;4865955;29;20053;-72
2023/03/17 00:08:09;;;;;;;10.02;3.03;;;9.10;99.90;;;;;;4882637;29;20045;-72
2023/03/17 00:10:35;;;;;;;4.88;3.03;;;9.30;99.90;;;;;;4882663;29;20037;-72
2023/03/17 00:13:01;;;;;;;5.75;2.60;;;9.30;99.90;;;;;;4882669;29;20055;-71
2023/03/17 00:15:27;;;;;;;6.68;2.90;;;9.30;99.90;;;;;;4897148;29;20048;-72
2023/03/17 00:17:55;;;;;;;4.18;2.90;;;9.30;99.90;;;;;;4882167;29;20045;-72
2023/03/17 00:20:29;;;;;;;5.82;2.80;;;9.20;99.90;;;;;;4882594;29;20048;-71
2023/03/17 00:22:58;;;;;;;5.53;2.42;;;9.20;99.90;;;;;;4882385;29;20446;-71
2023/03/17 00:25:26;;;;;;;6.60;2.90;;;9.20;99.90;;;;;;4882313;29;20446;-70
2023/03/17 00:27:53;;;;;;;6.32;2.40;;;9.10;99.90;;;;;;4882529;29;20365;-71
2023/03/17 00:30:20;;;;;;;4.50;2.40;;;9.10;99.90;;;;;;4882430;29;20051;-72
2023/03/17 00:32:47;;;;;;;6.20;2.80;;;9.10;99.90;;;;;;4881888;29;20048;-72
2023/03/17 00:35:27;;;;;;;5.57;3.13;;;9.10;99.90;;;;;;4882229;29;20075;-72
2023/03/17 00:37:56;;;;;;;5.82;2.45;;;9.10;99.90;;;;;;4882203;29;20049;-71
2023/03/17 00:40:30;;;;;;;4.22;2.53;;;9.10;99.90;;;;;;4882414;29;20381;-72
2023/03/17 00:42:58;;;;;;;6.95;3.13;;;9.20;99.90;;;;;;4882465;29;20052;-72
2023/03/17 00:45:26;;;;;;;8.27;2.80;;;9.20;99.90;;;;;;4883226;29;20045;-71
2023/03/17 00:47:56;;;;;;;5.57;2.95;;;9.20;99.90;;;;;;4885544;29;20045;-71
2023/03/17 00:50:26;;;;;;;4.75;2.63;;;9.30;99.90;;;;;;4900320;29;20116;-72
2023/03/17 00:52:54;;;;;;;4.97;2.53;;;9.10;99.90;;;;;;4885770;29;20365;-71
2023/03/17 00:55:22;;;;;;;6.07;2.70;;;9.20;99.90;;;;;;4885776;29;20192;-71
2023/03/17 00:57:49;;;;;;;5.28;2.47;;;9.10;99.90;;;;;;4885613;29;20065;-70
2023/03/17 01:00:24;;;;;;;7.60;2.67;;;9.10;99.90;;;;;;4885614;29;20045;-70
2023/03/17 01:02:52;;;;;;;5.30;2.72;;;9.00;99.90;;;;;;4885209;29;20133;-71
2023/03/17 01:05:19;;;;;;;4.43;2.15;;;9.10;99.90;;;;;;4885473;29;20044;-69
2023/03/17 01:07:51;;;;;;;4.50;2.58;;;9.20;99.90;;;;;;4885461;29;20119;-70
2023/03/17 01:10:25;;;;;;;6.47;2.83;;;9.10;99.90;;;;;;4885380;29;20136;-69
2023/03/17 01:12:53;;;;;;;4.43;2.33;;;9.10;99.90;;;;;;4885355;29;20077;-70
2023/03/17 01:15:20;;;;;;;6.20;2.75;;;9.20;99.90;;;;;;4885353;29;20037;-69
2023/03/17 01:17:46;;;;;;;6.03;2.60;;;9.20;99.90;;;;;;4885468;29;20039;-70
2023/03/17 01:20:33;;;;;;;5.68;2.38;;;9.20;99.90;;;;;;4885253;29;20048;-70
2023/03/17 01:22:59;;;;;;;8.95;2.80;;;9.20;99.90;;;;;;4885245;29;20041;-70
2023/03/17 01:25:26;;;;;;;5.68;2.75;;;9.30;99.90;;;;;;4885138;29;20045;-70
2023/03/17 01:27:56;;;;;;;5.85;2.47;;;9.30;99.90;;;;;;4885119;29;20049;-70
2023/03/17 01:30:37;;;;;;;5.97;2.90;;;9.30;99.90;;;;;;4884993;29;20450;-70
2023/03/17 01:33:04;;;;;;;4.55;2.50;;;9.20;99.90;;;;;;4884306;29;20347;-69
2023/03/17 01:35:30;;;;;;;7.20;2.80;;;9.20;99.90;;;;;;4884864;29;20142;-70
2023/03/17 01:37:56;;;;;;;3.83;2.45;;;9.20;99.90;;;;;;4884939;29;20120;-70
2023/03/17 01:40:26;;;;;;;8.32;2.55;;;9.20;99.90;;;;;;4884624;29;20458;-71
2023/03/17 01:43:16;;;;;;;5.38;2.40;;;9.10;99.90;;;;;;4884558;29;20037;-70
2023/03/17 01:46:21;;;;;;;4.63;2.80;;;9.20;99.90;;;;;;4873737;29;20055;-71
2023/03/17 01:48:52;;;;;;;5.65;3.38;;;9.10;99.90;;;;;;4884680;29;20093;-71
2023/03/17 01:51:30;;;;;;;4.13;2.40;;;9.10;99.90;;;;;;4884401;29;20049;-70
2023/03/17 01:53:58;;;;;;;5.90;2.70;;;9.10;99.90;;;;;;4884450;29;20080;-70
2023/03/17 01:56:24;;;;;;;6.07;2.80;;;9.10;99.90;;;;;;4884149;29;20124;-71
2023/03/17 01:58:53;;;;;;;7.10;2.72;;;9.10;99.90;;;;;;4884116;29;20124;-71
2023/03/17 02:01:26;;;;;;;6.00;2.60;;;9.10;99.90;;;;;;4884479;29;20052;-71
2023/03/17 02:03:53;;;;;;;5.70;2.63;;;9.10;99.90;;;;;;4883878;29;20424;-71
2023/03/17 02:06:18;;;;;;;5.80;2.75;;;9.20;99.90;;;;;;4884482;29;20431;-71
2023/03/17 02:08:45;;;;;;;6.63;2.67;;;9.20;99.90;;;;;;4884310;29;20124;-71
2023/03/17 02:11:10;;;;;;;4.82;2.53;;;9.10;99.90;;;;;;4884305;29;20046;-71
2023/03/17 02:13:37;;;;;;;6.07;2.90;;;9.20;99.90;;;;;;4883969;29;20045;-71
2023/03/17 02:16:03;;;;;;;4.93;2.80;;;9.30;99.90;;;;;;4884222;29;20041;-71
2023/03/17 02:18:28;;;;;;;5.03;2.47;;;9.10;99.90;;;;;;4884184;29;20356;-71
2023/03/17 02:21:32;;;;;;;4.60;2.38;;;9.10;99.90;;;;;;4883887;29;20049;-71
2023/03/17 02:24:01;;;;;;;7.05;2.40;;;9.10;99.90;;;;;;4883828;29;20431;-71
2023/03/17 02:26:31;;;;;;;6.90;2.97;;;9.00;99.90;;;;;;4898686;29;20316;-72
2023/03/17 02:28:57;;;;;;;6.97;3.13;;;9.00;99.90;;;;;;4884456;29;20388;-71
2023/03/17 02:31:25;;;;;;;6.03;2.72;;;9.00;99.90;;;;;;4898252;29;20053;-71
2023/03/17 02:33:51;;;;;;;7.15;2.83;;;9.00;99.90;;;;;;4883296;29;20045;-72
2023/03/17 02:36:17;;;;;;;4.10;2.20;;;9.00;99.90;;;;;;4883878;29;20515;-71
2023/03/17 02:38:42;;;;;;;7.95;2.58;;;9.00;99.90;;;;;;4883843;29;20045;-71
2023/03/17 02:41:08;;;;;;;9.43;2.70;;;9.00;99.90;;;;;;4883864;29;20041;-71
2023/03/17 02:43:34;;;;;;;6.47;2.88;;;9.00;99.90;;;;;;4883765;29;20037;-71
2023/03/17 02:46:01;;;;;;;7.35;2.50;;;9.00;99.90;;;;;;4883707;29;20044;-71
2023/03/17 02:48:27;;;;;;;3.83;2.03;;;9.00;99.90;;;;;;4883684;29;20153;-71
2023/03/17 02:50:52;;;;;;;4.95;2.50;;;8.90;99.90;;;;;;4883555;29;20048;-72
2023/03/17 02:53:18;;;;;;;6.32;2.80;;;8.90;99.90;;;;;;4883293;29;20048;-72
2023/03/17 02:55:44;;;;;;;5.55;2.80;;;9.00;99.90;;;;;;4883606;29;20037;-71
2023/03/17 02:58:10;;;;;;;5.40;3.03;;;9.00;99.90;;;;;;4883523;29;20043;-71
2023/03/17 03:00:37;;;;;;;7.72;3.03;;;9.00;99.90;;;;;;4883224;29;20045;-72
2023/03/17 03:03:03;;;;;;;9.15;2.60;;;9.00;99.90;;;;;;4883025;29;20049;-71
2023/03/17 03:05:29;;;;;;;5.47;2.92;;;9.00;99.90;;;;;;4883105;29;20049;-71
2023/03/17 03:07:54;;;;;;;4.43;2.67;;;9.00;99.90;;;;;;4897661;29;20037;-71
2023/03/17 03:10:20;;;;;;;5.65;2.80;;;9.00;99.90;;;;;;4883449;29;20419;-71
2023/03/17 03:12:46;;;;;;;6.25;3.30;;;9.00;99.90;;;;;;4883331;29;20205;-71
2023/03/17 03:15:12;;;;;;;5.68;2.70;;;8.90;99.90;;;;;;4883236;29;20043;-71
2023/03/17 03:17:38;;;;;;;5.68;3.08;;;9.00;99.90;;;;;;4882967;29;20041;-71
2023/03/17 03:20:04;;;;;;;8.98;3.10;;;9.00;99.90;;;;;;4883180;29;20082;-71
2023/03/17 03:22:30;;;;;;;5.35;2.53;;;9.00;99.90;;;;;;4882844;29;20045;-71
2023/03/17 03:24:55;;;;;;;8.07;3.08;;;8.90;99.90;;;;;;4883105;29;20052;-71
2023/03/17 03:27:21;;;;;;;6.60;2.97;;;9.00;99.90;;;;;;4866481;29;20248;-71
2023/03/17 03:29:47;;;;;;;7.25;2.95;;;8.90;99.90;;;;;;4883002;29;20131;-71
2023/03/17 03:32:13;;;;;;;5.97;2.60;;;8.90;99.90;;;;;;4883053;29;20068;-71
2023/03/17 03:34:40;;;;;;;10.10;2.85;;;9.00;99.90;;;;;;4882299;29;20109;-71
2023/03/17 03:37:06;;;;;;;7.25;2.45;;;9.00;99.90;;;;;;4882647;29;20049;-71
2023/03/17 03:39:32;;;;;;;5.53;2.70;;;9.10;99.90;;;;;;4882996;29;20338;-71
2023/03/17 03:41:58;;;;;;;6.15;2.60;;;9.00;99.90;;;;;;4882946;29;20128;-71
2023/03/17 03:44:24;;;;;;;6.03;3.20;;;8.90;99.90;;;;;;4882914;29;20048;-71
2023/03/17 03:46:50;;;;;;;6.57;3.15;;;8.90;99.90;;;;;;4882877;29;20128;-71
2023/03/17 03:49:16;;;;;;;6.22;2.83;;;9.00;99.90;;;;;;4882552;29;20049;-71
2023/03/17 03:51:42;;;;;;;5.57;2.70;;;9.10;99.90;;;;;;4882866;29;20037;-71
2023/03/17 03:54:07;;;;;;;7.05;2.53;;;9.10;99.90;;;;;;4882831;29;20044;-71
2023/03/17 03:56:33;;;;;;;7.97;3.03;;;9.00;99.90;;;;;;4882836;29;20120;-71
2023/03/17 03:58:59;;;;;;;5.78;2.90;;;8.90;99.90;;;;;;4882768;29;20060;-71
2023/03/17 04:01:26;;;;;;;7.05;2.88;;;8.90;99.90;;;;;;4882489;29;20087;-72
2023/03/17 04:03:52;;;;;;;6.15;2.97;;;9.10;99.90;;;;;;4882149;29;20048;-71
2023/03/17 04:06:18;;;;;;;5.88;2.90;;;9.00;99.90;;;;;;4882709;29;20040;-71
2023/03/17 04:08:43;;;;;;;4.97;2.85;;;9.10;99.90;;;;;;4882602;29;20049;-71
2023/03/17 04:11:09;;;;;;;4.78;2.70;;;9.00;99.90;;;;;;4882704;29;20045;-71
2023/03/17 04:13:35;;;;;;;6.80;2.70;;;9.00;99.90;;;;;;4882742;29;20078;-71
2023/03/17 04:16:01;;;;;;;5.40;2.70;;;9.10;99.90;;;;;;4866120;29;20111;-72
2023/03/17 04:18:26;;;;;;;8.30;2.97;;;9.10;99.90;;;;;;4882617;29;20044;-71
2023/03/17 04:20:52;;;;;;;7.22;2.75;;;9.00;99.90;;;;;;4884232;29;20435;-71
2023/03/17 04:23:18;;;;;;;5.78;2.80;;;9.00;99.90;;;;;;4886248;29;20123;-71
2023/03/17 04:25:43;;;;;;;6.80;2.63;;;8.90;99.90;;;;;;4886228;29;20048;-71
2023/03/17 04:28:11;;;;;;;7.45;2.92;;;9.00;99.90;;;;;;4869414;29;20049;-71
2023/03/17 04:30:36;;;;;;;5.95;3.13;;;8.90;99.90;;;;;;4885820;29;20140;-71
2023/03/17 04:33:02;;;;;;;7.82;2.67;;;8.90;99.90;;;;;;4885508;29;20116;-71
2023/03/17 04:35:28;;;;;;;4.60;2.50;;;9.00;99.90;;;;;;4886038;29;20049;-71
2023/03/17 04:37:54;;;;;;;6.13;2.95;;;8.90;99.90;;;;;;4885841;29;20077;-71
2023/03/17 04:40:20;;;;;;;5.28;2.83;;;8.90;99.90;;;;;;4885952;29;20076;-71
2023/03/17 04:42:46;;;;;;;7.65;2.78;;;9.10;99.90;;;;;;4885892;29;20037;-71
2023/03/17 04:45:16;;;;;;;7.90;3.75;;;9.10;99.90;;;;;;4885576;29;20491;-71
2023/03/17 04:47:44;;;;;;;6.28;3.00;;;9.00;99.90;;;;;;4885869;29;20048;-71
2023/03/17 04:50:11;;;;;;;5.78;2.63;;;9.00;99.90;;;;;;4885694;29;20045;-71
2023/03/17 04:52:36;;;;;;;9.23;2.63;;;8.90;99.90;;;;;;4885719;29;20045;-71
2023/03/17 04:55:04;;;;;;;7.85;3.10;;;9.00;99.90;;;;;;4885717;29;20129;-71
2023/03/17 04:57:29;;;;;;;4.63;2.70;;;8.90;99.90;;;;;;4885663;29;20105;-71
2023/03/17 04:59:56;;;;;;;10.07;3.05;;;8.90;99.90;;;;;;4885394;29;20049;-71
2023/03/17 05:02:22;;;;;;;6.63;2.60;;;8.80;99.90;;;;;;4885313;29;20431;-71
2023/03/17 05:04:48;;;;;;;7.07;3.05;;;8.90;99.90;;;;;;4868893;29;20120;-71
2023/03/17 05:07:14;;;;;;;5.18;2.63;;;8.90;99.90;;;;;;4885499;29;20177;-71
2023/03/17 05:09:40;;;;;;;6.78;2.88;;;8.80;99.90;;;;;;4885432;29;20332;-71
2023/03/17 05:12:08;;;;;;;4.90;2.45;;;8.70;99.90;;;;;;4885230;29;20055;-71
2023/03/17 05:14:33;;;;;;;6.82;2.70;;;8.60;99.90;;;;;;4885350;29;20141;-71
2023/03/17 05:16:59;;;;;;;5.72;2.72;;;8.70;99.90;;;;;;4885341;29;20070;-71
2023/03/17 05:19:25;;;;;;;5.97;3.00;;;8.80;99.90;;;;;;4885335;29;20491;-71
2023/03/17 05:21:51;;;;;;;6.95;2.60;;;8.90;99.90;;;;;;4885254;29;20095;-71
2023/03/17 05:24:17;;;;;;;9.82;3.08;;;8.90;99.90;;;;;;4884883;29;20052;-71
2023/03/17 05:26:43;;;;;;;7.93;3.00;;;8.80;99.90;;;;;;4868697;29;20053;-71
2023/03/17 05:29:09;;;;;;;7.15;3.03;;;8.90;99.90;;;;;;4884769;29;20481;-71
2023/03/17 05:31:35;;;;;;;5.85;2.70;;;8.90;99.90;;;;;;4884775;29;20036;-71
2023/03/17 05:34:01;;;;;;;5.25;2.58;;;8.90;99.90;;;;;;4884087;29;20459;-71
2023/03/17 05:36:27;;;;;;;5.80;3.03;;;8.90;99.90;;;;;;4884516;29;20070;-71
2023/03/17 05:38:52;;;;;;;7.97;2.63;;;8.90;99.90;;;;;;4884919;29;20120;-71
2023/03/17 05:41:18;;;;;;;8.40;2.80;;;8.90;99.90;;;;;;4884520;29;20083;-71
2023/03/17 05:43:44;;;;;;;8.88;2.63;;;9.00;99.90;;;;;;4884734;29;20037;-71
2023/03/17 05:46:10;;;;;;;4.85;2.80;;;9.00;99.90;;;;;;4868156;29;20427;-70
2023/03/17 05:48:36;;;;;;;6.93;2.70;;;9.00;99.90;;;;;;4884537;29;20080;-71
2023/03/17 05:51:01;;;;;;;8.38;2.75;;;9.00;99.90;;;;;;4885333;29;20124;-71
2023/03/17 05:53:28;;;;;;;7.18;3.00;;;9.10;99.90;;;;;;4884823;29;20427;-71
2023/03/17 05:55:54;;;;;;;6.60;2.78;;;9.00;99.90;;;;;;4884653;29;20041;-71
2023/03/17 05:58:20;;;;;;;5.88;2.80;;;9.10;99.90;;;;;;4884655;29;20048;-71
2023/03/17 06:00:46;;;;;;;7.47;2.92;;;9.00;99.90;;;;;;4884557;29;20340;-71
2023/03/17 06:03:12;;;;;;;7.15;2.58;;;9.10;99.90;;;;;;4883930;29;20392;-71
2023/03/17 06:05:37;;;;;;;6.82;3.08;;;9.00;99.90;;;;;;4884428;29;20045;-71
2023/03/17 06:08:04;;;;;;;6.45;3.03;;;9.10;99.90;;;;;;4884434;29;20336;-71
2023/03/17 06:10:31;;;;;;;5.78;2.67;;;9.10;99.90;;;;;;4884281;29;20048;-71
2023/03/17 06:12:57;;;;;;;5.72;2.80;;;9.10;99.90;;;;;;4884323;29;20049;-71
2023/03/17 06:15:23;;;;;;;5.88;2.60;;;9.10;99.90;;;;;;4884279;29;20115;-71
2023/03/17 06:17:50;;;;;;;6.88;2.97;;;9.20;99.90;;;;;;4884281;29;20097;-71
2023/03/17 06:20:17;;;;;;;4.82;2.60;;;9.30;99.90;;;;;;4884198;29;20339;-71
2023/03/17 06:22:43;;;;;;;9.88;3.20;;;9.20;99.90;;;;;;4884172;29;20128;-71
2023/03/17 06:25:09;;;;;;;6.68;3.00;;;9.20;99.90;;;;;;4884090;29;20053;-71
2023/03/17 06:27:36;;;;;;;6.63;2.75;;;9.30;99.90;;;;;;4867812;29;20083;-71
2023/03/17 06:30:03;;;;;;;5.88;2.83;;;9.20;99.90;;;;;;4883941;29;20443;-71
2023/03/17 06:32:29;;;;;;;5.05;2.50;;;9.20;99.90;;;;;;4883994;29;20136;-71
2023/03/17 06:34:55;;;;;;;6.68;2.70;;;9.30;99.90;;;;;;4883508;29;20466;-71
2023/03/17 06:37:21;;;;;;;7.57;2.78;;;9.30;99.90;;;;;;4883906;29;20036;-71
2023/03/17 06:39:47;;;;;;;9.98;3.00;;;9.30;99.90;;;;;;4883824;29;20049;-71
2023/03/17 06:42:13;;;;;;;7.22;2.95;;;9.30;99.90;;;;;;4883445;29;20087;-71
2023/03/17 06:44:39;;;;;;;7.03;2.58;;;9.30;99.90;;;;;;4883180;29;20120;-71
2023/03/17 06:47:05;;;;;;;5.47;2.53;;;9.40;99.90;;;;;;4883706;29;20104;-71
2023/03/17 06:49:31;;;;;;;8.35;3.13;;;9.50;99.90;;;;;;4883295;29;20045;-71
2023/03/17 06:51:56;;;;;;;6.97;3.00;;;9.70;99.90;;;;;;4883654;29;20052;-71
2023/03/17 06:54:24;;;;;;;7.22;3.30;;;9.70;99.90;;;;;;4883636;29;20068;-71
2023/03/17 06:56:50;;;;;;;8.65;3.40;;;9.70;99.90;;;;;;4883529;29;20076;-71
2023/03/17 06:59:16;;;;;;;5.20;3.17;;;9.60;99.90;;;;;;4883256;29;20057;-71
2023/03/17 07:01:43;;;;;;;5.65;3.03;;;9.70;99.90;;;;;;4883505;29;20052;-71
2023/03/17 07:04:08;;;;;;;5.35;3.10;;;9.70;99.90;;;;;;4883098;29;20466;-71
2023/03/17 07:06:34;;;;;;;6.60;2.95;;;9.80;99.90;;;;;;4883114;29;20053;-71
2023/03/17 07:09:01;;;;;;;7.85;3.03;;;9.70;99.90;;;;;;4883314;29;20052;-71
2023/03/17 07:11:28;;;;;;;7.60;3.38;;;9.80;99.90;;;;;;4883328;29;20053;-71
2023/03/17 07:13:54;;;;;;;7.93;2.92;;;9.80;99.90;;;;;;4883312;29;20045;-71
2023/03/17 07:16:20;;;;;;;6.18;3.03;;;9.70;99.90;;;;;;4883224;29;20048;-71
2023/03/17 07:18:46;;;;;;;6.40;2.90;;;9.60;99.90;;;;;;4882960;29;20045;-70
2023/03/17 07:21:11;;;;;;;6.22;3.00;;;9.60;99.90;;;;;;4866496;29;20082;-71
2023/03/17 07:23:37;;;;;;;6.13;3.05;;;9.60;99.90;;;;;;4883178;29;20037;-70
2023/03/17 07:26:03;;;;;;;5.78;3.10;;;9.50;99.90;;;;;;4883151;29;20420;-70
2023/03/17 07:28:29;;;;;;;6.18;3.22;;;9.60;99.90;;;;;;4882779;29;20383;-70
2023/03/17 07:30:56;;;;;;;8.45;3.13;;;9.70;99.90;;;;;;4883013;29;20097;-71
2023/03/17 07:33:24;;;;;;;5.32;3.17;;;9.80;99.90;;;;;;4882331;29;20060;-69
2023/03/17 07:35:50;;;;;;;7.30;3.00;;;9.90;99.90;;;;;;4883053;29;20048;-71
2023/03/17 07:38:17;;;;;;;5.85;2.78;;;9.90;99.90;;;;;;4882667;29;20446;-70
2023/03/17 07:40:46;;;;;;;9.05;3.50;;;9.90;99.90;;;;;;4866587;29;20041;-71
2023/03/17 07:43:12;;;;;;;6.22;3.13;;;9.90;99.90;;;;;;4882973;29;20053;-70
2023/03/17 07:45:38;;;;;;;6.50;2.88;;;9.90;99.90;;;;;;4866499;29;20045;-70
2023/03/17 07:48:05;;;;;;;5.50;2.70;;;9.90;99.90;;;;;;4882911;29;20051;-70
2023/03/17 07:50:32;;;;;;;6.25;2.78;;;10.00;99.90;;;;;;4882412;29;20048;-70
2023/03/17 07:52:58;;;;;;;6.10;2.72;;;10.10;99.90;;;;;;4882494;29;20045;-71
2023/03/17 07:55:23;;;;;;;6.07;3.20;;;10.30;99.90;;;;;;4878468;29;20037;-71
2023/03/17 07:57:49;;;;;;;5.35;2.70;;;10.20;99.90;;;;;;4878024;29;20037;-71
2023/03/17 08:00:16;;;;;;;6.75;3.13;;;10.20;99.90;;;;;;4878518;29;20044;-71
2023/03/17 08:02:42;;;;;;;4.72;2.97;;;10.10;99.90;;;;;;4883679;29;20041;-71
2023/03/17 08:05:08;;;;;;;7.25;3.13;;;10.20;99.90;;;;;;4886294;29;20053;-71
2023/03/17 08:07:36;;;;;;;8.20;3.10;;;10.40;99.90;;;;;;4886236;29;20424;-71
2023/03/17 08:10:04;;;;;;;5.00;2.92;;;10.40;99.90;;;;;;4886129;29;20410;-71
2023/03/17 08:12:30;;;;;;;6.63;3.17;;;10.50;99.90;;;;;;4886160;29;20052;-71
2023/03/17 08:14:56;;;;;;;6.90;2.80;;;10.40;99.90;;;;;;4886341;29;20041;-70
2023/03/17 08:17:25;;;;;;;5.55;2.92;;;10.60;99.90;;;;;;4886065;29;20052;-69
2023/03/17 08:19:52;;;;;;;5.68;2.97;;;10.60;99.90;;;;;;4886311;29;20041;-67
2023/03/17 08:22:18;;;;;;;8.40;3.08;;;10.60;99.90;;;;;;4885934;29;20045;-66
2023/03/17 08:24:43;;;;;;;6.40;3.00;;;10.60;99.90;;;;;;4886219;29;20055;-69
2023/03/17 08:27:09;;;;;;;5.78;3.13;;;10.70;99.90;;;;;;4886176;29;20041;-69
2023/03/17 08:29:35;;;;;;;6.57;3.00;;;10.80;99.90;;;;;;4886077;29;20446;-68
2023/03/17 08:32:01;;;;;;;5.65;2.83;;;10.80;99.90;;;;;;4886133;29;20041;-69
2023/03/17 08:34:27;;;;;;;11.63;3.33;;;10.70;99.90;;;;;;4885364;29;20067;-68
2023/03/17 08:36:52;;;;;;;6.57;2.80;;;10.70;99.90;;;;;;4886004;29;20428;-68
2023/03/17 08:39:19;;;;;;;7.63;3.33;;;10.70;99.90;;;;;;4885982;29;20072;-69
2023/03/17 08:41:45;;;;;;;9.63;3.50;;;10.70;99.90;;;;;;4885936;29;20056;-68
2023/03/17 08:44:13;;;;;;;8.10;3.15;;;10.70;99.90;;;;;;4885842;29;20049;-67
2023/03/17 08:46:39;;;;;;;5.75;3.13;;;10.90;99.90;;;;;;4885929;29;20308;-70
2023/03/17 08:49:06;;;;;;;5.60;3.03;;;10.90;99.90;;;;;;4885561;29;20056;-70
2023/03/17 08:51:34;;;;;;;10.93;3.65;;;10.90;99.90;;;;;;4885524;29;20040;-68
2023/03/17 08:54:01;;;;;;;6.72;3.08;;;11.10;99.90;;;;;;4885472;29;20045;-69
2023/03/17 08:56:26;;;;;;;5.93;2.95;;;11.00;99.90;;;;;;4885682;29;20040;-70
2023/03/17 08:58:53;;;;;;;7.55;3.10;;;11.20;99.90;;;;;;4868830;29;20055;-71
2023/03/17 09:01:20;;;;;;;8.35;3.20;;;11.30;99.90;;;;;;4885607;29;20044;-70
2023/03/17 09:03:49;;;;;;;7.40;3.40;;;11.40;99.90;;;;;;4885259;29;20056;-70
2023/03/17 09:06:15;;;;;;;9.30;3.28;;;11.40;99.90;;;;;;4884900;29;20076;-71
2023/03/17 09:08:46;;;;;;;7.70;3.50;;;11.50;99.90;;;;;;4885475;29;20065;-70
2023/03/17 09:11:17;;;;;;;6.90;3.20;;;11.50;99.90;;;;;;4885440;29;20045;-71
2023/03/17 09:13:45;;;;;;;6.57;3.22;;;11.70;99.90;;;;;;4885208;29;20045;-71
2023/03/17 09:16:11;;;;;;;6.40;3.25;;;11.70;99.90;;;;;;4885676;29;20037;-70
2023/03/17 09:18:38;;;;;;;7.00;3.33;;;11.80;99.90;;;;;;4885302;29;20081;-70
2023/03/17 09:21:04;;;;;;;7.07;3.33;;;11.90;99.90;;;;;;4885286;29;20041;-71
2023/03/17 09:23:31;;;;;;;6.90;3.50;;;12.10;99.90;;;;;;4885246;29;20127;-71
2023/03/17 09:25:57;;;;;;;7.05;3.42;;;12.30;99.90;;;;;;4885194;29;20053;-68
2023/03/17 09:28:23;;;;;;;7.05;3.45;;;12.40;99.90;;;;;;4885163;29;20048;-68
2023/03/17 09:30:49;;;;;;;7.65;3.33;;;12.50;99.90;;;;;;4885017;29;20173;-69
2023/03/17 09:33:16;;;;;;;7.78;3.65;;;12.70;99.90;;;;;;4867869;29;20119;-69
2023/03/17 09:35:42;;;;;;;7.72;3.20;;;12.80;99.90;;;;;;4865045;29;20054;-69
2023/03/17 09:38:09;;;;;;;7.18;3.13;;;12.80;99.90;;;;;;4866178;29;20455;-69
2023/03/17 09:40:52;;;;;;;8.30;3.53;;;12.70;99.90;;;;;;4866340;29;20041;-68
2023/03/17 09:43:55;;;;;;;8.25;3.35;;;12.70;99.90;;;;;;4866335;29;20041;-68
2023/03/17 09:46:31;;;;;;;6.60;3.50;;;12.80;99.90;;;;;;4865989;29;20060;-68
2023/03/17 09:49:02;;;;;;;8.73;3.45;;;12.70;99.90;;;;;;4866156;29;20053;-68
2023/03/17 09:51:31;;;;;;;6.18;3.28;;;12.90;99.90;;;;;;4865784;29;20074;-69
2023/03/17 09:54:02;;;;;;;6.88;3.50;;;13.10;99.90;;;;;;4865833;29;20456;-69
2023/03/17 09:56:31;;;;;;;9.05;3.58;;;13.30;99.90;;;;;;4865076;29;20056;-69
2023/03/17 09:59:05;;;;;;;11.10;3.65;;;13.30;99.90;;;;;;4866030;29;20449;-69
2023/03/17 10:01:31;;;;;;;7.53;3.45;;;13.30;99.90;;;;;;4864674;29;20433;-69
2023/03/17 10:03:57;;;;;;;7.60;3.40;;;13.60;99.90;;;;;;4864591;29;20049;-69
2023/03/17 10:06:43;;;;;;;8.65;3.53;;;13.70;99.90;;;;;;4864898;29;20116;-69
2023/03/17 10:09:27;;;;;;;7.32;3.00;;;13.90;99.90;;;;;;4865560;29;20050;-69
2023/03/17 10:12:02;;;;;;;7.50;3.35;;;14.10;99.90;;;;;;4866195;29;20041;-70
2023/03/17 10:14:40;;;;;;;7.45;3.50;;;14.00;99.90;;;;;;4865792;29;20041;-70
2023/03/17 10:17:15;;;;;;;8.75;3.65;;;13.90;99.90;;;;;;4864237;29;20077;-70
2023/03/17 10:19:44;;;;;;;9.98;3.42;;;14.20;99.90;;;;;;4865148;29;20049;-68
2023/03/17 10:22:22;;;;;;;7.63;3.35;;;14.60;99.90;;;;;;4861361;29;20076;-69
2023/03/17 10:24:56;;;;;;;7.63;3.72;;;14.90;99.90;;;;;;4864026;29;20108;-69
2023/03/17 10:27:22;;;;;;;8.75;3.38;;;14.80;99.90;;;;;;4864579;29;20042;-68
2023/03/17 10:29:48;;;;;;;7.72;3.53;;;14.90;99.90;;;;;;4865186;29;20052;-69
2023/03/17 10:32:14;;;;;;;9.32;4.00;;;14.90;99.90;;;;;;4865522;29;20084;-70
2023/03/17 10:34:41;;;;;;;7.68;3.70;;;15.10;99.90;;;;;;4864624;29;20061;-71
2023/03/17 10:37:12;;;;;;;7.85;3.53;;;15.30;99.90;;;;;;4882230;29;20076;-72
2023/03/17 10:39:49;;;;;;;6.72;3.65;;;15.50;99.90;;;;;;4866901;29;20053;-70
2023/03/17 10:42:25;;;;;;;7.85;3.33;;;15.90;99.90;;;;;;4883982;29;20041;-70
2023/03/17 10:45:09;;;;;;;8.88;3.70;;;16.00;99.90;;;;;;4883962;29;20143;-70
2023/03/17 10:47:43;;;;;;;8.50;3.53;;;16.20;99.90;;;;;;4883872;29;20041;-69
2023/03/17 10:50:27;;;;;;;7.47;3.83;;;16.30;99.90;;;;;;4883728;29;20040;-69
2023/03/17 10:52:59;;;;;;;7.03;3.33;;;16.30;99.90;;;;;;4883500;29;20045;-70
2023/03/17 10:55:52;;;;;;;7.03;3.72;;;16.60;99.90;;;;;;4867198;29;20037;-69
2023/03/17 10:58:38;;;;;;;7.60;3.35;;;16.90;99.90;;;;;;4868372;29;20054;-68
2023/03/17 11:01:16;;;;;;;7.07;3.80;;;16.90;99.90;;;;;;4869590;29;20041;-69
2023/03/17 11:03:41;;;;;;;7.45;3.50;;;17.10;99.90;;;;;;4864748;29;20106;-68
2023/03/17 11:06:10;;;;;;;7.93;4.10;;;17.20;99.90;;;;;;4878809;29;20054;-70
2023/03/17 11:08:45;;;;;;;8.38;3.78;;;17.30;99.90;;;;;;4864612;29;20046;-72
2023/03/17 11:11:44;;;;;;;7.60;3.75;;;17.60;99.90;;;;;;4864247;29;20052;-69
2023/03/17 11:14:17;;;;;;;6.85;3.75;;;17.70;99.90;;;;;;4816273;29;20057;-71
2023/03/17 11:16:56;;;;;;;5.70;3.13;;;18.20;99.90;;;;;;4864345;29;20041;-71
2023/03/17 11:19:48;;;;;;;8.75;3.72;;;18.10;99.90;;;;;;4864075;29;20447;-70
2023/03/17 11:22:16;;;;;;;7.68;3.95;;;17.90;99.90;;;;;;4868040;29;20139;-68
2023/03/17 11:25:00;;;;;;;6.68;3.80;;;18.20;99.90;;;;;;4872931;29;20037;-68
2023/03/17 11:27:58;;;;;;;9.18;4.20;;;18.40;99.90;;;;;;4875718;29;20392;-68
2023/03/17 11:30:32;;;;;;;9.65;4.40;;;18.30;99.90;;;;;;4878541;29;20041;-69
2023/03/17 11:33:17;;;;;;;9.27;4.10;;;18.00;99.90;;;;;;4882289;29;20116;-68
2023/03/17 11:36:00;;;;;;;8.63;3.63;;;18.00;99.90;;;;;;4882614;29;20052;-69
2023/03/17 11:38:28;;;;;;;7.72;4.35;;;18.10;99.90;;;;;;4882773;29;20047;-68
2023/03/17 11:41:01;;;;;;;7.78;4.20;;;17.80;99.90;;;;;;4873912;29;20041;-69
2023/03/17 11:43:40;;;;;;;8.70;4.63;;;17.70;99.90;;;;;;4864274;29;20049;-69
2023/03/17 11:46:17;;;;;;;9.50;4.80;;;18.20;99.90;;;;;;4868887;29;20048;-69
2023/03/17 11:48:51;;;;;;;9.10;4.65;;;18.90;99.90;;;;;;4882475;29;20107;-69
2023/03/17 11:51:55;;;;;;;9.40;4.63;;;18.40;99.90;;;;;;4880721;29;20060;-70
2023/03/17 11:55:06;;;;;;;9.35;3.90;;;18.20;99.90;;;;;;4871938;29;20057;-70
2023/03/17 11:57:56;;;;;;;9.95;4.72;;;18.20;99.90;;;;;;4851447;29;20119;-67
2023/03/17 12:00:31;;;;;;;8.75;3.70;;;17.80;99.90;;;;;;4883002;29;20120;-68
2023/03/17 12:03:18;;;;;;;6.78;4.00;;;18.30;99.90;;;;;;4882342;29;20404;-69
2023/03/17 12:05:51;;;;;;;11.47;4.20;;;19.10;99.90;;;;;;4882823;29;20049;-68
2023/03/17 12:08:23;;;;;;;8.07;4.30;;;19.40;99.90;;;;;;4882786;29;20079;-69
2023/03/17 12:10:55;;;;;;;8.75;3.90;;;19.80;99.90;;;;;;4866291;29;20132;-69
2023/03/17 12:13:26;;;;;;;8.05;4.40;;;19.80;99.90;;;;;;4866164;29;20383;-68
2023/03/17 12:16:02;;;;;;;10.80;4.70;;;19.40;99.90;;;;;;4882556;29;20044;-69
2023/03/17 12:18:34;;;;;;;7.85;4.13;;;19.20;99.90;;;;;;4866191;29;20142;-73
2023/03/17 12:21:22;;;;;;;8.63;4.25;;;18.50;99.90;;;;;;4882423;29;20081;-68
2023/03/17 12:23:59;;;;;;;9.07;4.38;;;18.80;99.90;;;;;;4882349;29;20116;-68
2023/03/17 12:26:38;;;;;;;8.38;5.25;;;18.90;99.90;;;;;;4882795;29;20052;-68
2023/03/17 12:29:22;;;;;;;9.77;5.05;;;18.60;99.90;;;;;;4870578;29;20042;-68
2023/03/17 12:31:55;;;;;;;8.60;4.95;;;18.40;99.90;;;;;;4863656;29;20115;-68
2023/03/17 12:34:55;;;;;;;8.57;4.63;;;18.00;99.90;;;;;;4864893;29;20373;-69
2023/03/17 12:37:22;;;;;;;10.02;4.78;;;18.30;99.90;;;;;;4863820;29;20050;-67
2023/03/17 12:39:59;;;;;;;11.90;5.35;;;18.40;99.90;;;;;;4854400;29;20134;-69
2023/03/17 12:42:53;;;;;;;8.63;5.43;;;18.00;99.90;;;;;;4861542;29;20052;-69
2023/03/17 12:46:07;;;;;;;9.27;4.88;;;18.30;99.90;;;;;;4856462;29;20041;-70
2023/03/17 12:48:33;;;;;;;8.55;5.43;;;18.20;99.90;;;;;;4832530;29;20054;-69
2023/03/17 12:51:29;;;;;;;10.80;5.70;;;18.20;99.90;;;;;;4848259;29;20132;-69
2023/03/17 12:53:57;;;;;;;9.45;5.45;;;18.20;99.90;;;;;;4832047;29;20144;-67
2023/03/17 12:56:29;;;;;;;9.65;5.55;;;18.30;99.90;;;;;;4848457;29;20113;-73
2023/03/17 12:59:13;;;;;;;11.02;5.75;;;18.80;99.90;;;;;;4866546;29;20424;-69
2023/03/17 13:01:45;;;;;;;10.52;5.40;;;18.50;99.90;;;;;;4848544;29;20042;-70
2023/03/17 13:04:26;;;;;;;10.82;6.00;;;18.20;99.90;;;;;;4848023;29;20077;-69
2023/03/17 13:07:13;;;;;;;13.20;6.32;;;17.80;99.90;;;;;;4854710;29;20049;-78